Time;durP1;ratioP1;P1;durP2;ratioP2;P2;SDS_P1;SDS_P2;PMS_P1;PMS_P2;Temp;Humidity;BMP_temperature;BMP_pressure;BME280_temperature;BME280_humidity;BME280_pressure;Samples;Min_cycle;Max_cycle;Signal;HPM_P1;HPM_P2
2022/09/26 00:02:11;;;;;;;6.13;5.07;;;11.30;99.90;;;;;;5050034;28;20232;-70
2022/09/26 00:04:38;;;;;;;4.90;4.13;;;11.30;99.90;;;;;;5050786;28;20222;-72
2022/09/26 00:07:05;;;;;;;7.50;5.30;;;11.30;99.90;;;;;;5051102;28;20213;-72
2022/09/26 00:09:31;;;;;;;7.13;4.93;;;11.20;99.90;;;;;;5050628;28;20244;-70
2022/09/26 00:11:58;;;;;;;5.13;4.60;;;11.20;99.90;;;;;;5050562;28;20668;-69
2022/09/26 00:14:27;;;;;;;6.30;4.68;;;11.20;99.90;;;;;;5050469;28;20237;-70
2022/09/26 00:16:56;;;;;;;6.65;4.40;;;11.10;99.90;;;;;;5050786;28;20202;-70
2022/09/26 00:19:23;;;;;;;5.60;4.90;;;11.10;99.90;;;;;;5050700;28;20209;-70
2022/09/26 00:21:50;;;;;;;6.28;4.68;;;11.10;99.90;;;;;;5050134;28;20320;-72
2022/09/26 00:24:17;;;;;;;6.50;4.90;;;11.10;99.90;;;;;;5050731;28;20228;-70
2022/09/26 00:26:44;;;;;;;5.77;4.87;;;11.00;99.90;;;;;;5050528;28;20688;-71
2022/09/26 00:29:13;;;;;;;5.63;4.35;;;11.00;99.90;;;;;;5050575;28;20467;-70
2022/09/26 00:31:43;;;;;;;6.95;5.00;;;10.90;99.90;;;;;;5050091;28;20206;-70
2022/09/26 00:34:12;;;;;;;5.18;4.30;;;10.90;99.90;;;;;;5050556;28;20225;-70
2022/09/26 00:36:39;;;;;;;4.75;4.25;;;10.90;99.90;;;;;;5050728;28;20206;-70
2022/09/26 00:39:07;;;;;;;6.05;4.75;;;10.80;99.90;;;;;;5050341;28;20665;-70
2022/09/26 00:41:35;;;;;;;5.53;4.28;;;10.80;99.90;;;;;;5050049;28;20661;-70
2022/09/26 00:44:02;;;;;;;6.43;4.90;;;10.80;99.90;;;;;;5050405;28;20317;-70
2022/09/26 00:46:34;;;;;;;5.65;4.93;;;10.70;99.90;;;;;;5050264;28;20209;-70
2022/09/26 00:49:10;;;;;;;5.32;4.57;;;10.60;99.90;;;;;;5050068;28;20208;-70
2022/09/26 00:51:41;;;;;;;5.68;4.50;;;10.60;99.90;;;;;;5050321;28;20204;-70
2022/09/26 00:54:11;;;;;;;5.30;3.88;;;10.50;99.90;;;;;;5049993;28;20228;-70
2022/09/26 00:56:39;;;;;;;4.85;4.25;;;10.50;99.90;;;;;;5050721;28;20236;-70
2022/09/26 00:59:10;;;;;;;5.10;4.00;;;10.50;99.90;;;;;;5050339;28;20206;-70
2022/09/26 01:01:37;;;;;;;7.55;4.30;;;10.40;99.90;;;;;;5049283;28;20209;-70
2022/09/26 01:04:06;;;;;;;6.32;4.65;;;10.40;99.90;;;;;;5050219;28;20225;-70
2022/09/26 01:06:33;;;;;;;5.68;4.47;;;10.30;99.90;;;;;;5049761;28;20205;-70
2022/09/26 01:09:07;;;;;;;4.65;4.15;;;10.30;99.90;;;;;;5050233;28;20208;-69
2022/09/26 01:11:35;;;;;;;5.75;5.20;;;10.30;99.90;;;;;;5049322;28;20554;-70
2022/09/26 01:14:02;;;;;;;6.72;5.10;;;10.20;99.90;;;;;;5050127;28;20240;-70
2022/09/26 01:16:30;;;;;;;6.30;4.72;;;10.20;99.90;;;;;;5054185;28;20482;-70
2022/09/26 01:18:57;;;;;;;5.10;4.38;;;10.20;99.90;;;;;;5054232;28;20226;-71
2022/09/26 01:21:48;;;;;;;5.70;4.68;;;10.10;99.90;;;;;;5053606;28;20208;-71
2022/09/26 01:24:38;;;;;;;6.63;4.20;;;10.10;99.90;;;;;;5053366;28;20224;-71
2022/09/26 01:27:36;;;;;;;4.75;4.10;;;10.10;99.90;;;;;;5054424;28;20223;-71
2022/09/26 01:30:11;;;;;;;5.68;4.25;;;10.10;99.90;;;;;;5053934;28;20204;-70
2022/09/26 01:33:05;;;;;;;5.63;4.53;;;10.10;99.90;;;;;;5053683;28;20197;-70
2022/09/26 01:35:48;;;;;;;6.90;4.95;;;10.00;99.90;;;;;;5053278;28;20672;-70
2022/09/26 01:38:23;;;;;;;6.15;4.90;;;10.00;99.90;;;;;;5053977;28;20209;-70
2022/09/26 01:41:04;;;;;;;6.57;4.78;;;10.00;99.90;;;;;;5053755;28;20263;-70
2022/09/26 01:43:35;;;;;;;5.47;4.97;;;10.00;99.90;;;;;;5053186;28;20271;-71
2022/09/26 01:46:11;;;;;;;6.43;5.78;;;10.00;99.90;;;;;;5053445;28;20210;-70
2022/09/26 01:48:44;;;;;;;5.85;4.30;;;10.00;99.90;;;;;;5053719;28;20292;-70
2022/09/26 01:51:17;;;;;;;6.72;4.53;;;10.00;99.90;;;;;;5053257;28;20205;-71
2022/09/26 01:53:52;;;;;;;7.53;6.50;;;9.90;99.90;;;;;;5053637;28;20224;-71
2022/09/26 01:56:22;;;;;;;5.45;4.47;;;9.90;99.90;;;;;;5052971;28;20676;-70
2022/09/26 01:58:53;;;;;;;6.45;4.80;;;9.90;99.90;;;;;;5053827;28;20209;-70
2022/09/26 02:01:25;;;;;;;4.78;4.18;;;9.90;99.90;;;;;;5052952;28;20202;-71
2022/09/26 02:03:54;;;;;;;5.75;4.35;;;9.90;99.90;;;;;;5053089;28;20237;-70
2022/09/26 02:06:25;;;;;;;5.47;4.30;;;9.90;99.90;;;;;;5053091;28;20288;-71
2022/09/26 02:08:57;;;;;;;6.93;4.80;;;9.90;99.90;;;;;;5053200;28;20209;-70
2022/09/26 02:11:24;;;;;;;4.95;4.45;;;9.90;99.90;;;;;;5052611;28;20212;-70
2022/09/26 02:13:56;;;;;;;4.95;4.22;;;9.90;99.90;;;;;;5052691;28;20316;-70
2022/09/26 02:16:27;;;;;;;6.10;4.70;;;9.90;99.90;;;;;;5053116;28;20205;-70
2022/09/26 02:18:58;;;;;;;6.45;5.18;;;9.90;99.90;;;;;;5052910;28;20206;-70
2022/09/26 02:21:25;;;;;;;5.68;4.95;;;9.90;99.90;;;;;;5052586;28;20198;-71
2022/09/26 02:23:53;;;;;;;5.55;5.05;;;9.90;99.90;;;;;;5052956;28;20236;-70
2022/09/26 02:26:20;;;;;;;5.60;5.10;;;9.90;99.90;;;;;;5051876;28;20506;-70
2022/09/26 02:28:47;;;;;;;6.25;4.07;;;9.90;99.90;;;;;;5052889;28;20676;-70
2022/09/26 02:31:19;;;;;;;6.70;4.63;;;9.90;99.90;;;;;;5052481;28;20209;-71
2022/09/26 02:33:48;;;;;;;6.05;4.40;;;9.90;99.90;;;;;;5051766;28;20275;-71
2022/09/26 02:36:16;;;;;;;5.82;4.90;;;9.90;99.90;;;;;;5052690;28;20206;-71
2022/09/26 02:38:43;;;;;;;5.15;4.57;;;9.90;99.90;;;;;;5053040;28;20202;-71
2022/09/26 02:41:17;;;;;;;5.20;3.97;;;10.00;99.90;;;;;;5052357;28;20198;-72
2022/09/26 02:43:56;;;;;;;4.47;3.72;;;10.00;99.90;;;;;;5052802;28;20260;-71
2022/09/26 02:47:01;;;;;;;4.78;3.85;;;10.00;99.90;;;;;;5052276;28;20296;-71
2022/09/26 02:49:47;;;;;;;6.45;4.63;;;9.90;99.90;;;;;;5050098;28;20313;-70
2022/09/26 02:52:22;;;;;;;5.30;4.30;;;9.90;99.90;;;;;;5051888;28;20205;-70
2022/09/26 02:55:04;;;;;;;5.05;4.47;;;9.90;99.90;;;;;;5052655;28;20228;-70
2022/09/26 02:57:42;;;;;;;5.30;4.47;;;9.90;99.90;;;;;;5052281;28;20206;-71
2022/09/26 03:00:12;;;;;;;5.53;4.43;;;10.00;99.90;;;;;;5052381;28;20661;-70
2022/09/26 03:02:45;;;;;;;4.70;3.60;;;9.90;99.90;;;;;;5051520;28;20631;-71
2022/09/26 03:05:17;;;;;;;5.75;4.72;;;10.00;99.90;;;;;;5052475;28;20217;-71
2022/09/26 03:07:48;;;;;;;5.20;4.07;;;10.00;99.90;;;;;;5052453;28;20202;-71
2022/09/26 03:10:16;;;;;;;5.10;4.22;;;10.00;99.90;;;;;;5052331;28;20205;-70
2022/09/26 03:12:44;;;;;;;4.47;3.58;;;10.00;99.90;;;;;;5051792;28;20193;-71
2022/09/26 03:15:13;;;;;;;5.88;3.95;;;10.00;99.90;;;;;;5052669;28;20202;-71
2022/09/26 03:17:43;;;;;;;5.07;4.55;;;10.00;99.90;;;;;;5052327;28;20213;-71
2022/09/26 03:20:14;;;;;;;4.75;4.28;;;10.00;99.90;;;;;;5051993;28;20209;-71
2022/09/26 03:22:42;;;;;;;4.60;4.20;;;9.90;99.90;;;;;;5051267;28;20236;-71
2022/09/26 03:25:10;;;;;;;5.20;4.38;;;9.90;99.90;;;;;;5051899;28;20556;-72
2022/09/26 03:27:40;;;;;;;6.07;4.25;;;9.90;99.90;;;;;;5051879;28;20201;-72
2022/09/26 03:30:08;;;;;;;4.47;3.75;;;9.90;99.90;;;;;;5051787;28;20197;-71
2022/09/26 03:32:36;;;;;;;4.28;3.60;;;9.90;99.90;;;;;;5051245;28;20749;-71
2022/09/26 03:35:02;;;;;;;4.25;3.85;;;9.90;99.90;;;;;;5051402;28;20208;-71
2022/09/26 03:37:32;;;;;;;5.03;3.80;;;10.00;99.90;;;;;;5040103;28;20201;-71
2022/09/26 03:39:59;;;;;;;4.68;3.63;;;10.00;99.90;;;;;;5042129;28;20305;-71
2022/09/26 03:42:26;;;;;;;3.97;3.60;;;10.00;99.90;;;;;;5039555;28;20202;-71
2022/09/26 03:44:53;;;;;;;4.22;3.83;;;10.00;99.90;;;;;;5041082;28;20734;-71
2022/09/26 03:47:19;;;;;;;4.10;3.70;;;10.00;99.90;;;;;;5042121;28;20570;-71
2022/09/26 03:49:46;;;;;;;4.55;3.90;;;10.00;99.90;;;;;;5040649;28;20209;-71
2022/09/26 03:52:13;;;;;;;4.18;3.63;;;10.00;99.90;;;;;;5040275;28;20212;-71
2022/09/26 03:54:41;;;;;;;8.88;4.28;;;10.00;99.90;;;;;;5042237;28;20210;-70
2022/09/26 03:57:09;;;;;;;4.60;3.55;;;9.90;99.90;;;;;;5039367;28;20195;-71
2022/09/26 03:59:36;;;;;;;4.90;3.72;;;10.00;99.90;;;;;;5033171;28;20220;-71
2022/09/26 04:02:02;;;;;;;5.93;4.00;;;10.00;99.90;;;;;;5046968;28;20202;-71
2022/09/26 04:04:31;;;;;;;3.97;3.60;;;9.90;99.90;;;;;;5050622;28;20225;-71
2022/09/26 04:06:57;;;;;;;4.72;3.88;;;9.90;99.90;;;;;;5051262;28;20587;-71
2022/09/26 04:09:24;;;;;;;4.78;3.30;;;9.90;99.90;;;;;;5050905;28;20210;-71
2022/09/26 04:11:52;;;;;;;4.07;3.40;;;9.90;99.90;;;;;;5051205;28;20213;-71
2022/09/26 04:14:19;;;;;;;8.45;3.65;;;9.90;99.90;;;;;;5050884;28;20229;-71
2022/09/26 04:16:47;;;;;;;3.83;3.10;;;10.00;99.90;;;;;;5051075;28;20202;-71
2022/09/26 04:19:14;;;;;;;3.70;3.40;;;10.00;99.90;;;;;;5050946;28;20590;-71
2022/09/26 04:21:41;;;;;;;3.17;2.88;;;10.00;99.90;;;;;;5050634;28;20686;-71
2022/09/26 04:24:13;;;;;;;3.78;3.40;;;9.90;99.90;;;;;;5050772;28;20447;-73
2022/09/26 04:26:40;;;;;;;3.63;3.08;;;9.90;99.90;;;;;;5050586;28;20640;-74
2022/09/26 04:29:08;;;;;;;3.35;2.92;;;10.00;99.90;;;;;;5050682;28;20202;-73
2022/09/26 04:31:36;;;;;;;2.95;2.75;;;9.90;99.90;;;;;;5050235;28;20212;-73
2022/09/26 04:34:04;;;;;;;4.32;3.15;;;9.90;99.90;;;;;;5050677;28;20214;-73
2022/09/26 04:36:31;;;;;;;5.45;3.08;;;9.90;99.90;;;;;;5050683;28;20205;-73
2022/09/26 04:38:59;;;;;;;4.38;3.30;;;9.90;99.90;;;;;;5050661;28;20206;-73
2022/09/26 04:41:27;;;;;;;3.65;3.00;;;9.80;99.90;;;;;;5049614;28;20602;-74
2022/09/26 04:43:54;;;;;;;4.68;3.38;;;9.80;99.90;;;;;;5050257;28;20229;-74
2022/09/26 04:46:26;;;;;;;3.70;3.15;;;9.80;99.90;;;;;;5050328;28;20550;-74
2022/09/26 04:48:54;;;;;;;3.22;2.90;;;9.80;99.90;;;;;;5050347;28;20210;-73
2022/09/26 04:51:22;;;;;;;4.30;3.08;;;9.80;99.90;;;;;;5049845;28;20216;-74
2022/09/26 04:53:50;;;;;;;3.20;2.80;;;9.80;99.90;;;;;;5050413;28;20572;-73
2022/09/26 04:56:18;;;;;;;3.03;2.72;;;9.80;99.90;;;;;;5050334;28;20232;-73
2022/09/26 04:58:45;;;;;;;4.55;2.85;;;9.70;99.90;;;;;;5050471;28;20213;-73
2022/09/26 05:01:14;;;;;;;2.72;2.53;;;9.70;99.90;;;;;;5049771;28;20212;-73
2022/09/26 05:03:43;;;;;;;3.90;3.50;;;9.70;99.90;;;;;;5050548;28;20294;-73
2022/09/26 05:06:11;;;;;;;4.32;3.20;;;9.70;99.90;;;;;;5050598;28;20697;-73
2022/09/26 05:08:39;;;;;;;2.60;2.40;;;9.70;99.90;;;;;;5050584;28;20201;-73
2022/09/26 05:11:07;;;;;;;4.55;3.42;;;9.70;99.90;;;;;;5050861;28;20205;-73
2022/09/26 05:13:45;;;;;;;3.33;2.72;;;9.70;99.90;;;;;;5101291;22;20305;-94
2022/09/26 05:16:40;;;;;;;8.23;2.35;;;9.60;99.90;;;;;;5069961;28;20228;-94
2022/09/26 05:27:20;;;;;;;3.75;3.20;;;9.50;99.90;;;;;;5073303;28;20246;-93
2022/09/26 05:30:06;;;;;;;3.55;3.10;;;9.50;99.90;;;;;;5068371;28;20201;-93
2022/09/26 05:35:16;;;;;;;3.42;3.13;;;9.50;99.90;;;;;;5071386;28;20201;-94
2022/09/26 05:37:43;;;;;;;4.88;3.20;;;9.50;99.90;;;;;;5073724;28;20209;-93
2022/09/26 05:43:00;;;;;;;3.70;3.10;;;9.50;99.90;;;;;;5072691;28;20208;-93
2022/09/26 05:45:30;;;;;;;3.03;2.75;;;9.50;99.90;;;;;;5074066;28;20209;-93
2022/09/26 05:48:15;;;;;;;3.38;3.08;;;9.50;99.90;;;;;;5070292;28;20235;-93
2022/09/26 05:50:44;;;;;;;3.72;2.70;;;9.50;99.90;;;;;;5070035;28;20202;-93
2022/09/26 05:53:17;;;;;;;3.38;2.70;;;9.50;99.90;;;;;;5069649;28;20208;-94
2022/09/26 05:55:48;;;;;;;3.22;2.92;;;9.50;99.90;;;;;;5069601;28;20232;-94
2022/09/26 05:58:17;;;;;;;3.00;2.75;;;9.50;99.90;;;;;;5066203;28;20179;-94
2022/09/26 06:00:46;;;;;;;2.92;2.63;;;9.50;99.90;;;;;;5063683;28;20262;-94
2022/09/26 06:09:17;;;;;;;2.38;2.17;;;9.80;99.90;;;;;;5077085;28;20190;-93
2022/09/26 06:11:44;;;;;;;2.60;2.28;;;9.80;99.90;;;;;;5080756;28;20302;-94
2022/09/26 06:14:11;;;;;;;4.15;2.60;;;9.80;99.90;;;;;;5088042;22;20235;-70
2022/09/26 06:16:38;;;;;;;4.10;3.70;;;9.70;99.90;;;;;;5053271;28;20204;-71
2022/09/26 06:19:05;;;;;;;8.65;3.58;;;9.70;99.90;;;;;;5053213;28;20210;-71
2022/09/26 06:21:32;;;;;;;3.75;3.13;;;9.70;99.90;;;;;;5052712;28;20212;-70
2022/09/26 06:23:59;;;;;;;3.38;3.08;;;9.80;99.90;;;;;;5053116;28;20689;-70
2022/09/26 06:26:27;;;;;;;4.07;3.67;;;9.80;99.90;;;;;;5053199;28;20205;-70
2022/09/26 06:28:58;;;;;;;5.28;3.05;;;9.80;99.90;;;;;;5053238;28;20233;-70
2022/09/26 06:31:25;;;;;;;4.68;2.85;;;9.80;99.90;;;;;;5052828;28;20240;-70
2022/09/26 06:33:54;;;;;;;5.10;3.10;;;9.80;99.90;;;;;;5053257;28;20217;-71
2022/09/26 06:36:21;;;;;;;3.25;2.95;;;9.80;99.90;;;;;;5052999;28;20287;-70
2022/09/26 06:38:51;;;;;;;3.67;3.17;;;9.80;99.90;;;;;;5052945;28;20209;-70
2022/09/26 06:41:18;;;;;;;3.28;2.50;;;9.80;99.90;;;;;;5052409;28;20205;-70
2022/09/26 06:43:46;;;;;;;3.63;3.33;;;9.90;99.90;;;;;;5052789;28;20770;-71
2022/09/26 06:46:13;;;;;;;3.30;2.95;;;9.90;99.90;;;;;;5048250;28;20343;-70
2022/09/26 06:48:40;;;;;;;3.95;3.00;;;9.90;99.90;;;;;;5052878;28;20198;-70
2022/09/26 06:51:11;;;;;;;6.80;3.47;;;9.80;99.90;;;;;;5052555;28;20202;-70
2022/09/26 06:53:38;;;;;;;3.67;3.20;;;9.90;99.90;;;;;;5051651;28;20214;-71
2022/09/26 06:56:07;;;;;;;3.60;3.15;;;9.90;99.90;;;;;;5052396;28;20700;-70
2022/09/26 06:58:34;;;;;;;4.68;3.78;;;9.90;99.90;;;;;;5052311;28;20603;-70
2022/09/26 07:01:01;;;;;;;3.45;3.10;;;9.90;99.90;;;;;;5052256;28;20608;-70
2022/09/26 07:03:28;;;;;;;3.35;3.05;;;9.90;99.90;;;;;;5051389;28;20217;-71
2022/09/26 07:05:56;;;;;;;3.45;3.15;;;9.90;99.90;;;;;;5052148;28;20210;-71
2022/09/26 07:08:23;;;;;;;3.65;3.25;;;10.10;99.90;;;;;;5051795;28;20201;-70
2022/09/26 07:10:50;;;;;;;3.80;2.65;;;10.10;99.90;;;;;;5052484;28;20205;-71
2022/09/26 07:13:18;;;;;;;3.42;3.10;;;10.20;99.90;;;;;;5051146;28;20717;-70
2022/09/26 07:15:45;;;;;;;3.58;2.70;;;10.20;99.90;;;;;;5051861;28;20300;-70
2022/09/26 07:18:12;;;;;;;3.70;3.35;;;10.30;99.90;;;;;;5051941;28;20209;-70
2022/09/26 07:20:41;;;;;;;2.95;2.65;;;10.40;99.90;;;;;;5051811;28;20213;-70
2022/09/26 07:23:10;;;;;;;3.50;3.10;;;10.50;99.90;;;;;;5051362;28;20718;-70
2022/09/26 07:25:38;;;;;;;3.42;3.13;;;10.50;99.90;;;;;;5051633;28;20226;-70
2022/09/26 07:28:05;;;;;;;3.20;2.90;;;10.60;99.90;;;;;;5052069;28;20655;-70
2022/09/26 07:30:33;;;;;;;3.70;2.85;;;10.60;99.90;;;;;;5051030;28;20206;-71
2022/09/26 07:33:02;;;;;;;3.83;3.10;;;10.60;99.90;;;;;;5051174;28;20229;-71
2022/09/26 07:35:29;;;;;;;2.80;2.60;;;10.70;99.90;;;;;;5051081;28;20200;-70
2022/09/26 07:37:56;;;;;;;3.50;2.83;;;10.70;99.90;;;;;;5051129;28;20217;-70
2022/09/26 07:40:22;;;;;;;3.75;3.03;;;10.70;99.90;;;;;;5050794;28;20219;-70
2022/09/26 07:42:51;;;;;;;3.33;2.85;;;10.70;99.90;;;;;;5050183;28;20578;-70
2022/09/26 07:50:09;;;;;;;3.03;2.80;;;10.80;99.90;;;;;;5050585;28;20221;-70
2022/09/26 07:50:55;;;;;;;4.15;2.83;;;10.80;99.90;;;;;;5049904;28;20248;-70
2022/09/26 07:53:23;;;;;;;3.20;2.50;;;10.80;99.90;;;;;;5050281;28;20233;-71
2022/09/26 07:58:30;;;;;;;4.13;3.10;;;10.70;99.90;;;;;;5050717;28;20200;-70
2022/09/26 08:00:57;;;;;;;3.20;2.90;;;10.80;99.90;;;;;;5051436;28;20201;-71
2022/09/26 08:03:28;;;;;;;3.45;2.88;;;10.80;99.90;;;;;;5050763;28;20225;-71
2022/09/26 08:05:56;;;;;;;2.63;2.42;;;10.90;99.90;;;;;;5050552;28;20221;-71
2022/09/26 08:08:23;;;;;;;3.63;2.35;;;10.90;99.90;;;;;;5051257;28;20202;-70
2022/09/26 08:10:51;;;;;;;3.47;2.88;;;11.00;99.90;;;;;;5051295;28;20206;-70
2022/09/26 08:13:18;;;;;;;3.33;2.25;;;11.00;99.90;;;;;;5050225;28;20283;-70
2022/09/26 08:15:45;;;;;;;3.28;2.70;;;11.10;99.90;;;;;;5050814;28;20680;-70
2022/09/26 08:18:11;;;;;;;3.38;3.08;;;11.10;99.90;;;;;;5050597;28;20209;-70
2022/09/26 08:20:39;;;;;;;2.47;2.25;;;11.10;99.90;;;;;;5050745;28;20201;-70
2022/09/26 08:23:06;;;;;;;4.15;2.60;;;11.20;99.90;;;;;;5045478;28;20218;-70
2022/09/26 08:25:33;;;;;;;3.20;2.53;;;11.30;99.90;;;;;;5049282;28;20700;-71
2022/09/26 08:27:59;;;;;;;3.38;2.17;;;11.30;99.90;;;;;;5050711;28;20604;-70
2022/09/26 08:30:30;;;;;;;2.60;2.40;;;11.40;99.90;;;;;;5049987;28;20220;-71
2022/09/26 08:32:57;;;;;;;4.00;2.40;;;11.40;99.90;;;;;;5049330;28;20248;-71
2022/09/26 08:35:25;;;;;;;2.47;2.28;;;11.50;99.90;;;;;;5049990;28;20271;-71
2022/09/26 08:37:53;;;;;;;4.75;3.17;;;11.70;99.90;;;;;;5050286;28;20301;-70
2022/09/26 08:40:31;;;;;;;3.65;2.20;;;11.80;99.90;;;;;;5049849;28;20201;-71
2022/09/26 08:43:06;;;;;;;2.85;2.55;;;11.90;99.90;;;;;;5048656;28;20656;-71
2022/09/26 08:48:48;;;;;;;2.53;2.33;;;12.10;99.90;;;;;;5049848;28;20286;-70
2022/09/26 08:51:24;;;;;;;3.05;2.85;;;12.30;99.90;;;;;;5049104;28;20229;-70
2022/09/26 08:53:57;;;;;;;2.92;2.20;;;12.50;99.90;;;;;;5046942;28;20229;-70
2022/09/26 08:56:31;;;;;;;5.43;2.70;;;12.60;99.90;;;;;;5049215;28;20577;-70
2022/09/26 08:59:02;;;;;;;4.93;2.25;;;13.00;99.90;;;;;;5050145;28;20586;-71
2022/09/26 09:01:31;;;;;;;2.40;2.20;;;13.30;99.90;;;;;;5048427;28;20590;-70
2022/09/26 09:04:03;;;;;;;2.97;2.77;;;13.70;99.90;;;;;;5049759;28;20831;-71
2022/09/26 09:06:30;;;;;;;3.07;2.77;;;14.00;99.90;;;;;;5048658;28;20467;-70
2022/09/26 09:08:58;;;;;;;3.03;2.60;;;14.20;99.90;;;;;;5049795;28;20518;-70
2022/09/26 09:11:43;;;;;;;3.00;2.27;;;14.40;99.90;;;;;;5049051;28;20869;-71
2022/09/26 09:14:24;;;;;;;4.73;2.60;;;14.70;99.90;;;;;;5049575;28;20891;-71
2022/09/26 09:17:04;;;;;;;2.57;2.20;;;14.80;99.90;;;;;;5049552;28;20467;-71
2022/09/26 09:19:38;;;;;;;2.60;2.37;;;14.90;99.90;;;;;;5049348;28;20456;-70
2022/09/26 09:22:27;;;;;;;2.27;2.07;;;15.00;99.90;;;;;;5048782;28;20468;-70
2022/09/26 09:25:00;;;;;;;5.40;3.00;;;14.90;99.90;;;;;;5050042;28;20488;-70
2022/09/26 09:27:44;;;;;;;3.37;2.73;;;14.80;99.90;;;;;;5049456;28;20459;-70
2022/09/26 09:30:18;;;;;;;3.17;2.27;;;14.90;99.90;;;;;;5049439;28;20468;-70
2022/09/26 09:32:51;;;;;;;3.10;2.03;;;15.20;99.90;;;;;;5048479;28;20459;-70
2022/09/26 09:35:24;;;;;;;2.43;2.20;;;15.40;99.90;;;;;;5049996;28;20947;-70
2022/09/26 09:37:54;;;;;;;2.73;2.53;;;15.70;99.90;;;;;;5053499;28;20982;-71
2022/09/26 09:40:27;;;;;;;3.40;2.23;;;16.00;99.90;;;;;;5053238;28;20974;-70
2022/09/26 09:43:01;;;;;;;2.80;2.60;;;16.10;99.90;;;;;;5053184;28;20467;-70
2022/09/26 09:45:40;;;;;;;3.07;2.47;;;15.90;99.90;;;;;;5052839;28;20514;-70
2022/09/26 09:48:11;;;;;;;2.63;2.40;;;15.50;99.90;;;;;;5053397;28;20837;-70
2022/09/26 09:50:50;;;;;;;2.13;1.93;;;15.10;99.90;;;;;;5053362;28;20468;-70
2022/09/26 09:53:30;;;;;;;3.07;2.47;;;15.10;99.90;;;;;;5052298;28;21021;-70
2022/09/26 09:56:08;;;;;;;1.93;1.63;;;14.90;99.90;;;;;;5052681;28;20955;-70
2022/09/26 09:58:49;;;;;;;2.40;2.00;;;14.90;99.90;;;;;;5053443;28;20849;-70
2022/09/26 10:01:24;;;;;;;1.33;1.23;;;14.90;99.90;;;;;;5052359;28;20470;-70
2022/09/26 10:04:03;;;;;;;1.90;1.70;;;14.80;99.90;;;;;;5053229;28;20483;-71
2022/09/26 10:06:31;;;;;;;6.27;1.97;;;14.70;99.90;;;;;;5052621;28;20515;-70
2022/09/26 10:09:02;;;;;;;1.63;1.53;;;14.60;99.90;;;;;;5052834;28;20470;-70
2022/09/26 10:11:38;;;;;;;2.30;1.57;;;14.60;99.90;;;;;;5052293;28;21187;-70
2022/09/26 10:14:08;;;;;;;3.80;1.67;;;14.40;99.90;;;;;;5052605;28;21285;-70
2022/09/26 10:16:34;;;;;;;1.50;1.40;;;14.30;99.90;;;;;;5052721;28;20452;-70
2022/09/26 10:19:06;;;;;;;5.70;1.97;;;14.30;99.90;;;;;;5052805;28;20463;-70
2022/09/26 10:21:38;;;;;;;1.70;1.60;;;14.50;99.90;;;;;;5051746;28;20452;-70
2022/09/26 10:24:06;;;;;;;2.40;1.77;;;14.90;99.90;;;;;;5052447;28;20538;-70
2022/09/26 10:26:37;;;;;;;2.67;1.80;;;15.30;99.90;;;;;;5052752;28;20837;-70
2022/09/26 10:29:08;;;;;;;3.97;2.00;;;15.70;99.90;;;;;;5052077;28;20470;-70
2022/09/26 10:31:37;;;;;;;2.70;2.20;;;16.10;99.90;;;;;;5052342;28;20880;-71
2022/09/26 10:34:06;;;;;;;2.10;1.77;;;16.60;99.90;;;;;;5052350;28;20511;-71
2022/09/26 10:36:35;;;;;;;2.07;1.73;;;16.90;99.90;;;;;;5052334;28;20459;-70
2022/09/26 10:42:02;;;;;;;2.63;1.87;;;16.60;99.90;;;;;;5052020;28;20526;-70
2022/09/26 10:44:32;;;;;;;1.50;1.27;;;16.30;99.90;;;;;;5051811;28;20847;-70
2022/09/26 10:47:07;;;;;;;3.00;1.83;;;16.10;99.90;;;;;;5052031;28;20499;-70
2022/09/26 10:49:38;;;;;;;1.30;1.20;;;15.90;99.90;;;;;;5052712;28;20460;-70
2022/09/26 10:52:13;;;;;;;1.60;1.30;;;15.90;99.90;;;;;;5051662;28;20491;-70
2022/09/26 10:54:44;;;;;;;1.30;1.10;;;15.80;99.90;;;;;;5052873;28;20483;-70
2022/09/26 10:57:22;;;;;;;1.43;1.30;;;15.70;99.90;;;;;;5051756;28;20814;-70
2022/09/26 10:59:51;;;;;;;1.40;1.30;;;15.70;99.90;;;;;;5052303;28;20467;-70
2022/09/26 11:02:22;;;;;;;1.50;1.27;;;16.00;99.90;;;;;;5051625;28;20486;-70
2022/09/26 11:07:41;;;;;;;1.50;1.30;;;16.40;99.90;;;;;;5052336;28;20448;-70
2022/09/26 11:10:12;;;;;;;1.73;1.20;;;16.90;99.90;;;;;;5051650;28;20555;-70
2022/09/26 11:12:56;;;;;;;1.93;1.40;;;17.10;99.90;;;;;;5051725;28;20464;-70
2022/09/26 11:17:52;;;;;;;1.20;1.00;;;16.60;99.90;;;;;;5030805;28;20842;-68
2022/09/26 11:20:36;;;;;;;2.07;1.50;;;16.40;99.90;;;;;;5031874;28;20461;-68
2022/09/26 11:23:13;;;;;;;1.60;1.40;;;16.00;99.90;;;;;;5031670;28;20485;-68
2022/09/26 11:25:52;;;;;;;2.20;1.30;;;15.80;99.90;;;;;;5031798;28;20489;-68
2022/09/26 11:28:26;;;;;;;1.30;1.10;;;15.60;99.90;;;;;;5031587;28;20464;-68
2022/09/26 11:31:00;;;;;;;1.93;1.20;;;15.30;99.90;;;;;;5031787;28;20468;-67
2022/09/26 11:33:27;;;;;;;2.80;1.27;;;15.00;99.90;;;;;;5030768;28;20516;-68
2022/09/26 11:36:15;;;;;;;3.20;1.40;;;14.80;99.90;;;;;;5031531;28;20452;-68
2022/09/26 11:38:46;;;;;;;1.40;1.17;;;14.60;99.90;;;;;;5031833;28;20556;-68
2022/09/26 11:41:40;;;;;;;1.13;1.00;;;15.00;99.90;;;;;;5031220;28;20968;-68
2022/09/26 11:44:40;;;;;;;2.00;1.20;;;15.20;99.90;;;;;;5031158;28;21015;-67
2022/09/26 11:47:56;;;;;;;2.03;1.20;;;15.60;99.90;;;;;;5023524;28;21020;-69
2022/09/26 11:50:38;;;;;;;1.43;1.20;;;16.00;99.90;;;;;;5031163;28;20465;-69
2022/09/26 11:53:17;;;;;;;1.40;1.20;;;16.20;99.90;;;;;;5030856;28;20864;-68
2022/09/26 11:56:00;;;;;;;2.70;1.30;;;15.90;99.90;;;;;;5031832;28;20464;-69
2022/09/26 11:58:37;;;;;;;1.90;1.67;;;15.60;99.90;;;;;;5030353;28;20804;-69
2022/09/26 12:01:15;;;;;;;5.20;1.50;;;15.40;99.90;;;;;;5031724;28;20456;-68
2022/09/26 12:04:10;;;;;;;1.33;1.10;;;15.20;99.90;;;;;;5031385;28;20480;-69
2022/09/26 12:06:48;;;;;;;1.10;1.00;;;15.10;99.90;;;;;;5004238;28;20594;-69
2022/09/26 12:09:34;;;;;;;1.50;1.40;;;15.00;99.90;;;;;;5030619;28;20495;-68
2022/09/26 12:12:13;;;;;;;1.00;0.90;;;15.10;99.90;;;;;;5030424;28;20475;-69
2022/09/26 12:14:52;;;;;;;1.40;1.10;;;15.30;99.90;;;;;;5030755;28;20553;-69
2022/09/26 12:17:35;;;;;;;1.30;1.10;;;15.80;99.90;;;;;;5031016;28;20563;-69
2022/09/26 12:20:12;;;;;;;1.93;1.73;;;16.30;99.90;;;;;;5030766;28;20461;-69
2022/09/26 12:22:46;;;;;;;1.97;1.47;;;16.80;99.90;;;;;;5030048;28;20736;-69
2022/09/26 12:25:31;;;;;;;1.50;1.30;;;17.20;99.90;;;;;;5030576;28;20515;-69
2022/09/26 12:28:09;;;;;;;2.23;1.40;;;17.60;99.90;;;;;;5030786;28;20461;-69
2022/09/26 12:30:41;;;;;;;1.30;1.20;;;17.90;99.90;;;;;;5030968;28;20875;-69
2022/09/26 12:33:33;;;;;;;2.07;1.10;;;17.50;99.90;;;;;;5029940;28;20484;-69
2022/09/26 12:36:07;;;;;;;1.20;1.00;;;17.40;99.90;;;;;;5028338;28;20456;-69
2022/09/26 12:38:48;;;;;;;2.03;1.93;;;17.10;99.90;;;;;;5030653;28;20957;-69
2022/09/26 12:41:32;;;;;;;2.17;1.20;;;16.90;99.90;;;;;;5010851;28;20893;-69
2022/09/26 12:44:16;;;;;;;1.47;1.10;;;16.70;99.90;;;;;;5011365;28;20481;-68
2022/09/26 12:47:03;;;;;;;0.90;0.80;;;16.30;99.90;;;;;;5031405;28;20485;-68
2022/09/26 12:50:07;;;;;;;1.43;1.10;;;16.10;99.90;;;;;;5030258;28;20484;-69
2022/09/26 12:52:58;;;;;;;1.10;1.00;;;15.80;99.90;;;;;;5023710;28;20878;-69
2022/09/26 12:55:37;;;;;;;1.40;1.20;;;15.50;99.90;;;;;;5030408;28;20464;-70
2022/09/26 12:58:21;;;;;;;1.93;1.20;;;15.40;99.90;;;;;;5030184;28;20955;-68
2022/09/26 13:00:55;;;;;;;1.30;1.17;;;15.30;99.90;;;;;;5030472;28;20500;-69
2022/09/26 13:03:47;;;;;;;1.20;1.10;;;15.00;99.90;;;;;;5029692;28;20481;-69
2022/09/26 13:06:46;;;;;;;1.67;1.00;;;14.90;99.90;;;;;;5029947;28;20719;-69
2022/09/26 13:09:27;;;;;;;1.10;1.00;;;14.70;99.90;;;;;;5031415;28;20456;-69
2022/09/26 13:12:08;;;;;;;1.00;0.90;;;14.50;99.90;;;;;;5035701;28;20461;-69
2022/09/26 13:14:59;;;;;;;0.90;0.70;;;14.40;99.90;;;;;;5035417;28;20476;-69
2022/09/26 13:17:32;;;;;;;0.90;0.70;;;14.20;99.90;;;;;;5036395;28;20460;-69
2022/09/26 13:20:04;;;;;;;1.53;1.00;;;14.00;99.90;;;;;;5036789;28;20522;-69
2022/09/26 13:22:39;;;;;;;0.90;0.80;;;14.00;99.90;;;;;;5035824;28;20463;-69
2022/09/26 13:25:16;;;;;;;1.67;1.43;;;13.90;99.90;;;;;;5036021;28;20456;-68
2022/09/26 13:27:50;;;;;;;0.90;0.80;;;13.90;99.90;;;;;;5036660;28;20464;-68
2022/09/26 13:30:22;;;;;;;1.23;1.00;;;14.00;99.90;;;;;;5036340;28;20876;-69
2022/09/26 13:32:55;;;;;;;0.90;0.70;;;14.00;99.90;;;;;;5036462;28;20836;-68
2022/09/26 13:35:24;;;;;;;1.30;1.10;;;14.00;99.90;;;;;;5036112;28;20472;-69
2022/09/26 13:38:15;;;;;;;1.63;1.17;;;14.20;99.90;;;;;;5036637;28;20468;-69
2022/09/26 13:40:50;;;;;;;0.90;0.73;;;14.50;99.90;;;;;;5036566;28;20464;-69
2022/09/26 13:43:43;;;;;;;1.33;0.93;;;15.10;99.90;;;;;;5035655;28;20827;-69
2022/09/26 13:46:19;;;;;;;0.90;0.80;;;15.40;99.90;;;;;;5036211;28;20576;-69
2022/09/26 13:48:50;;;;;;;1.37;0.90;;;15.70;99.90;;;;;;5034284;28;20465;-69
2022/09/26 13:51:23;;;;;;;2.03;1.00;;;15.70;99.90;;;;;;5034947;28;20468;-69
2022/09/26 13:53:59;;;;;;;1.07;0.97;;;15.60;99.90;;;;;;5036945;28;20487;-69
2022/09/26 13:56:44;;;;;;;1.07;0.97;;;15.80;99.90;;;;;;5036187;28;20891;-69